sensor_id;sensor_type;location;lat;lon;timestamp;temperature;humidity
12901;DHT22;6518;50.930;5.344;2023-04-06T00:00:26;7.20;60.40
12901;DHT22;6518;50.930;5.344;2023-04-06T00:02:54;7.20;60.70
12901;DHT22;6518;50.930;5.344;2023-04-06T00:05:22;7.10;61.00
12901;DHT22;6518;50.930;5.344;2023-04-06T00:07:49;7.00;61.70
12901;DHT22;6518;50.930;5.344;2023-04-06T00:10:16;7.00;61.90
12901;DHT22;6518;50.930;5.344;2023-04-06T00:12:45;6.90;62.00
12901;DHT22;6518;50.930;5.344;2023-04-06T00:15:12;6.90;62.20
12901;DHT22;6518;50.930;5.344;2023-04-06T00:17:38;6.90;62.90
12901;DHT22;6518;50.930;5.344;2023-04-06T00:20:07;6.80;63.00
12901;DHT22;6518;50.930;5.344;2023-04-06T00:22:34;6.80;63.20
12901;DHT22;6518;50.930;5.344;2023-04-06T00:25:01;6.80;63.20
12901;DHT22;6518;50.930;5.344;2023-04-06T00:27:28;6.80;64.40
12901;DHT22;6518;50.930;5.344;2023-04-06T00:29:56;6.70;63.60
12901;DHT22;6518;50.930;5.344;2023-04-06T00:32:23;6.70;63.90
12901;DHT22;6518;50.930;5.344;2023-04-06T00:34:50;6.70;63.80
12901;DHT22;6518;50.930;5.344;2023-04-06T00:37:17;6.70;64.40
12901;DHT22;6518;50.930;5.344;2023-04-06T00:39:44;6.70;65.10
12901;DHT22;6518;50.930;5.344;2023-04-06T00:42:12;6.70;64.10
12901;DHT22;6518;50.930;5.344;2023-04-06T00:44:40;6.60;64.30
12901;DHT22;6518;50.930;5.344;2023-04-06T00:47:08;6.70;64.80
12901;DHT22;6518;50.930;5.344;2023-04-06T00:49:35;6.60;65.40
12901;DHT22;6518;50.930;5.344;2023-04-06T00:52:02;6.60;64.80
12901;DHT22;6518;50.930;5.344;2023-04-06T00:54:29;6.60;65.00
12901;DHT22;6518;50.930;5.344;2023-04-06T00:56:57;6.50;65.00
12901;DHT22;6518;50.930;5.344;2023-04-06T00:59:24;6.50;65.30
12901;DHT22;6518;50.930;5.344;2023-04-06T01:01:51;6.50;65.20
12901;DHT22;6518;50.930;5.344;2023-04-06T01:04:19;6.50;66.10
12901;DHT22;6518;50.930;5.344;2023-04-06T01:06:48;6.50;65.40
12901;DHT22;6518;50.930;5.344;2023-04-06T01:09:15;6.40;65.40
12901;DHT22;6518;50.930;5.344;2023-04-06T01:11:42;6.50;65.70
12901;DHT22;6518;50.930;5.344;2023-04-06T01:14:09;6.50;65.50
12901;DHT22;6518;50.930;5.344;2023-04-06T01:16:36;6.40;65.70
12901;DHT22;6518;50.930;5.344;2023-04-06T01:19:07;6.40;65.60
12901;DHT22;6518;50.930;5.344;2023-04-06T01:21:36;6.40;65.50
12901;DHT22;6518;50.930;5.344;2023-04-06T01:24:06;6.40;65.30
12901;DHT22;6518;50.930;5.344;2023-04-06T01:26:34;6.40;65.60
12901;DHT22;6518;50.930;5.344;2023-04-06T01:29:02;6.40;65.70
12901;DHT22;6518;50.930;5.344;2023-04-06T01:31:29;6.40;65.90
12901;DHT22;6518;50.930;5.344;2023-04-06T01:33:56;6.30;66.20
12901;DHT22;6518;50.930;5.344;2023-04-06T01:36:23;6.30;67.00
12901;DHT22;6518;50.930;5.344;2023-04-06T01:38:50;6.30;67.10
12901;DHT22;6518;50.930;5.344;2023-04-06T01:41:19;6.30;66.10
12901;DHT22;6518;50.930;5.344;2023-04-06T01:43:47;6.30;66.20
12901;DHT22;6518;50.930;5.344;2023-04-06T01:46:14;6.30;66.00
12901;DHT22;6518;50.930;5.344;2023-04-06T01:48:41;6.30;66.00
12901;DHT22;6518;50.930;5.344;2023-04-06T01:51:08;6.20;65.70
12901;DHT22;6518;50.930;5.344;2023-04-06T01:53:35;6.30;66.00
12901;DHT22;6518;50.930;5.344;2023-04-06T01:56:02;6.30;66.40
12901;DHT22;6518;50.930;5.344;2023-04-06T01:58:31;6.20;66.60
12901;DHT22;6518;50.930;5.344;2023-04-06T02:00:58;6.20;65.90
12901;DHT22;6518;50.930;5.344;2023-04-06T02:03:25;6.20;65.80
12901;DHT22;6518;50.930;5.344;2023-04-06T02:05:52;6.20;66.20
12901;DHT22;6518;50.930;5.344;2023-04-06T02:08:18;6.20;66.50
12901;DHT22;6518;50.930;5.344;2023-04-06T02:10:45;6.10;66.50
12901;DHT22;6518;50.930;5.344;2023-04-06T02:13:12;6.10;66.30
12901;DHT22;6518;50.930;5.344;2023-04-06T02:15:40;6.10;66.90
12901;DHT22;6518;50.930;5.344;2023-04-06T02:18:08;6.10;66.90
12901;DHT22;6518;50.930;5.344;2023-04-06T02:20:36;6.10;66.90
12901;DHT22;6518;50.930;5.344;2023-04-06T02:23:02;6.10;66.70
12901;DHT22;6518;50.930;5.344;2023-04-06T02:25:29;6.10;66.40
12901;DHT22;6518;50.930;5.344;2023-04-06T02:27:56;6.10;67.60
12901;DHT22;6518;50.930;5.344;2023-04-06T02:30:23;6.10;66.50
12901;DHT22;6518;50.930;5.344;2023-04-06T02:32:51;6.10;66.90
12901;DHT22;6518;50.930;5.344;2023-04-06T02:35:18;6.10;66.50
12901;DHT22;6518;50.930;5.344;2023-04-06T02:37:45;6.00;67.60
12901;DHT22;6518;50.930;5.344;2023-04-06T02:40:14;6.00;66.70
12901;DHT22;6518;50.930;5.344;2023-04-06T02:42:40;6.00;66.70
12901;DHT22;6518;50.930;5.344;2023-04-06T02:45:08;6.00;67.60
12901;DHT22;6518;50.930;5.344;2023-04-06T02:47:35;6.00;66.70
12901;DHT22;6518;50.930;5.344;2023-04-06T02:50:04;6.00;67.60
12901;DHT22;6518;50.930;5.344;2023-04-06T02:52:31;6.00;66.80
12901;DHT22;6518;50.930;5.344;2023-04-06T02:54:58;5.90;67.10
12901;DHT22;6518;50.930;5.344;2023-04-06T02:57:25;5.90;67.00
12901;DHT22;6518;50.930;5.344;2023-04-06T02:59:52;5.90;66.90
12901;DHT22;6518;50.930;5.344;2023-04-06T03:02:19;5.90;68.20
12901;DHT22;6518;50.930;5.344;2023-04-06T03:04:46;5.90;67.10
12901;DHT22;6518;50.930;5.344;2023-04-06T03:07:15;5.90;67.30
12901;DHT22;6518;50.930;5.344;2023-04-06T03:09:42;5.90;67.00
12901;DHT22;6518;50.930;5.344;2023-04-06T03:12:09;5.90;67.20
12901;DHT22;6518;50.930;5.344;2023-04-06T03:14:36;5.90;67.00
12901;DHT22;6518;50.930;5.344;2023-04-06T03:17:03;5.90;67.00
12901;DHT22;6518;50.930;5.344;2023-04-06T03:19:29;5.90;67.50
12901;DHT22;6518;50.930;5.344;2023-04-06T03:21:56;5.90;67.20
12901;DHT22;6518;50.930;5.344;2023-04-06T03:24:25;5.90;67.50
12901;DHT22;6518;50.930;5.344;2023-04-06T03:26:52;5.90;67.40
12901;DHT22;6518;50.930;5.344;2023-04-06T03:29:18;5.80;67.30
12901;DHT22;6518;50.930;5.344;2023-04-06T03:31:45;5.80;67.40
12901;DHT22;6518;50.930;5.344;2023-04-06T03:34:12;5.80;67.40
12901;DHT22;6518;50.930;5.344;2023-04-06T03:36:39;5.80;67.50
12901;DHT22;6518;50.930;5.344;2023-04-06T03:39:06;5.80;67.40
12901;DHT22;6518;50.930;5.344;2023-04-06T03:41:34;5.80;67.70
12901;DHT22;6518;50.930;5.344;2023-04-06T03:44:01;5.80;68.30
12901;DHT22;6518;50.930;5.344;2023-04-06T03:46:28;5.80;67.50
12901;DHT22;6518;50.930;5.344;2023-04-06T03:48:55;5.80;67.70
12901;DHT22;6518;50.930;5.344;2023-04-06T03:51:22;5.80;67.60
12901;DHT22;6518;50.930;5.344;2023-04-06T03:53:49;5.80;67.70
12901;DHT22;6518;50.930;5.344;2023-04-06T03:56:15;5.80;67.60
12901;DHT22;6518;50.930;5.344;2023-04-06T03:58:44;5.80;68.60
12901;DHT22;6518;50.930;5.344;2023-04-06T04:01:11;5.80;68.40
12901;DHT22;6518;50.930;5.344;2023-04-06T04:03:38;5.80;67.60
12901;DHT22;6518;50.930;5.344;2023-04-06T04:06:05;5.80;67.70
12901;DHT22;6518;50.930;5.344;2023-04-06T04:08:31;5.80;67.80
12901;DHT22;6518;50.930;5.344;2023-04-06T04:10:58;5.80;67.90
12901;DHT22;6518;50.930;5.344;2023-04-06T04:13:25;5.80;67.90
12901;DHT22;6518;50.930;5.344;2023-04-06T04:15:54;5.80;67.80
12901;DHT22;6518;50.930;5.344;2023-04-06T04:18:21;5.80;68.00
12901;DHT22;6518;50.930;5.344;2023-04-06T04:20:48;5.80;67.90
12901;DHT22;6518;50.930;5.344;2023-04-06T04:23:14;5.80;68.10
12901;DHT22;6518;50.930;5.344;2023-04-06T04:25:43;5.80;68.00
12901;DHT22;6518;50.930;5.344;2023-04-06T04:28:10;5.80;67.90
12901;DHT22;6518;50.930;5.344;2023-04-06T04:30:37;5.80;67.90
12901;DHT22;6518;50.930;5.344;2023-04-06T04:33:06;5.80;68.00
12901;DHT22;6518;50.930;5.344;2023-04-06T04:35:32;5.80;67.80
12901;DHT22;6518;50.930;5.344;2023-04-06T04:37:59;5.80;67.90
12901;DHT22;6518;50.930;5.344;2023-04-06T04:40:26;5.80;67.90
12901;DHT22;6518;50.930;5.344;2023-04-06T04:42:53;5.80;67.80
12901;DHT22;6518;50.930;5.344;2023-04-06T04:45:20;5.80;67.90
12901;DHT22;6518;50.930;5.344;2023-04-06T04:47:47;5.80;67.90
12901;DHT22;6518;50.930;5.344;2023-04-06T04:50:15;5.80;67.80
12901;DHT22;6518;50.930;5.344;2023-04-06T04:52:42;5.80;68.00
12901;DHT22;6518;50.930;5.344;2023-04-06T04:55:09;5.80;67.80
12901;DHT22;6518;50.930;5.344;2023-04-06T04:57:36;5.90;68.00
12901;DHT22;6518;50.930;5.344;2023-04-06T05:00:03;5.90;68.00
12901;DHT22;6518;50.930;5.344;2023-04-06T05:02:31;5.90;68.00
12901;DHT22;6518;50.930;5.344;2023-04-06T05:04:58;5.90;68.00
12901;DHT22;6518;50.930;5.344;2023-04-06T05:07:26;5.90;68.00
12901;DHT22;6518;50.930;5.344;2023-04-06T05:09:53;5.90;67.90
12901;DHT22;6518;50.930;5.344;2023-04-06T05:12:20;5.90;68.20
12901;DHT22;6518;50.930;5.344;2023-04-06T05:14:47;5.90;68.00
12901;DHT22;6518;50.930;5.344;2023-04-06T05:17:14;5.90;68.20
12901;DHT22;6518;50.930;5.344;2023-04-06T05:19:41;6.00;68.10
12901;DHT22;6518;50.930;5.344;2023-04-06T05:22:08;6.00;68.20
12901;DHT22;6518;50.930;5.344;2023-04-06T05:24:36;6.00;68.20
12901;DHT22;6518;50.930;5.344;2023-04-06T05:27:03;6.00;68.20
12901;DHT22;6518;50.930;5.344;2023-04-06T05:29:30;6.00;68.30
12901;DHT22;6518;50.930;5.344;2023-04-06T05:31:57;6.00;68.10
12901;DHT22;6518;50.930;5.344;2023-04-06T05:34:24;6.00;68.10
12901;DHT22;6518;50.930;5.344;2023-04-06T05:36:51;6.10;68.30
12901;DHT22;6518;50.930;5.344;2023-04-06T05:39:18;6.10;68.20
12901;DHT22;6518;50.930;5.344;2023-04-06T05:41:48;6.10;68.20
12901;DHT22;6518;50.930;5.344;2023-04-06T05:44:15;6.10;68.20
12901;DHT22;6518;50.930;5.344;2023-04-06T05:46:42;6.10;68.30
12901;DHT22;6518;50.930;5.344;2023-04-06T05:49:09;6.10;68.40
12901;DHT22;6518;50.930;5.344;2023-04-06T05:51:35;6.20;68.30
12901;DHT22;6518;50.930;5.344;2023-04-06T05:54:02;6.20;68.40
12901;DHT22;6518;50.930;5.344;2023-04-06T05:56:29;6.20;68.30
12901;DHT22;6518;50.930;5.344;2023-04-06T05:58:58;6.30;68.50
12901;DHT22;6518;50.930;5.344;2023-04-06T06:01:25;6.30;68.40
12901;DHT22;6518;50.930;5.344;2023-04-06T06:03:52;6.30;68.30
12901;DHT22;6518;50.930;5.344;2023-04-06T06:06:19;6.30;68.50
12901;DHT22;6518;50.930;5.344;2023-04-06T06:08:46;6.30;68.50
12901;DHT22;6518;50.930;5.344;2023-04-06T06:11:13;6.30;68.40
12901;DHT22;6518;50.930;5.344;2023-04-06T06:13:40;6.40;68.60
12901;DHT22;6518;50.930;5.344;2023-04-06T06:16:08;6.40;68.50
12901;DHT22;6518;50.930;5.344;2023-04-06T06:18:35;6.40;68.60
12901;DHT22;6518;50.930;5.344;2023-04-06T06:21:02;6.40;68.70
12901;DHT22;6518;50.930;5.344;2023-04-06T06:23:29;6.40;68.70
12901;DHT22;6518;50.930;5.344;2023-04-06T06:25:56;6.40;69.50
12901;DHT22;6518;50.930;5.344;2023-04-06T06:28:24;6.50;68.70
12901;DHT22;6518;50.930;5.344;2023-04-06T06:30:52;6.50;68.70
12901;DHT22;6518;50.930;5.344;2023-04-06T06:33:20;6.50;68.80
12901;DHT22;6518;50.930;5.344;2023-04-06T06:35:47;6.60;68.90
12901;DHT22;6518;50.930;5.344;2023-04-06T06:38:14;6.60;69.70
12901;DHT22;6518;50.930;5.344;2023-04-06T06:40:41;6.60;68.80
12901;DHT22;6518;50.930;5.344;2023-04-06T06:43:08;6.70;69.00
12901;DHT22;6518;50.930;5.344;2023-04-06T06:45:35;6.70;69.00
12901;DHT22;6518;50.930;5.344;2023-04-06T06:48:02;6.70;68.90
12901;DHT22;6518;50.930;5.344;2023-04-06T06:50:31;6.80;69.00
12901;DHT22;6518;50.930;5.344;2023-04-06T06:52:57;6.80;69.90
12901;DHT22;6518;50.930;5.344;2023-04-06T06:55:24;6.90;69.80
12901;DHT22;6518;50.930;5.344;2023-04-06T06:57:52;6.90;68.80
12901;DHT22;6518;50.930;5.344;2023-04-06T07:00:19;7.00;68.90
12901;DHT22;6518;50.930;5.344;2023-04-06T07:02:47;7.00;69.00
12901;DHT22;6518;50.930;5.344;2023-04-06T07:05:16;7.10;69.00
12901;DHT22;6518;50.930;5.344;2023-04-06T07:07:44;7.10;68.90
12901;DHT22;6518;50.930;5.344;2023-04-06T07:10:11;7.20;68.90
12901;DHT22;6518;50.930;5.344;2023-04-06T07:12:38;7.30;68.90
12901;DHT22;6518;50.930;5.344;2023-04-06T07:15:06;7.30;68.70
12901;DHT22;6518;50.930;5.344;2023-04-06T07:17:33;7.40;68.60
12901;DHT22;6518;50.930;5.344;2023-04-06T07:20:00;7.50;68.50
12901;DHT22;6518;50.930;5.344;2023-04-06T07:22:27;7.60;68.50
12901;DHT22;6518;50.930;5.344;2023-04-06T07:24:55;7.70;68.30
12901;DHT22;6518;50.930;5.344;2023-04-06T07:27:22;7.80;68.10
12901;DHT22;6518;50.930;5.344;2023-04-06T07:29:49;7.80;68.10
12901;DHT22;6518;50.930;5.344;2023-04-06T07:32:16;7.80;68.00
12901;DHT22;6518;50.930;5.344;2023-04-06T07:34:43;8.00;68.00
12901;DHT22;6518;50.930;5.344;2023-04-06T07:37:10;8.00;67.60
12901;DHT22;6518;50.930;5.344;2023-04-06T07:39:37;8.10;67.70
12901;DHT22;6518;50.930;5.344;2023-04-06T07:42:06;8.10;67.70
12901;DHT22;6518;50.930;5.344;2023-04-06T07:44:33;8.10;67.60
12901;DHT22;6518;50.930;5.344;2023-04-06T07:46:59;8.10;67.70
12901;DHT22;6518;50.930;5.344;2023-04-06T07:49:27;8.20;67.90
12901;DHT22;6518;50.930;5.344;2023-04-06T07:51:53;8.20;67.90
12901;DHT22;6518;50.930;5.344;2023-04-06T07:54:20;8.20;68.00
12901;DHT22;6518;50.930;5.344;2023-04-06T07:56:47;8.20;68.80
12901;DHT22;6518;50.930;5.344;2023-04-06T07:59:16;8.30;68.00
12901;DHT22;6518;50.930;5.344;2023-04-06T08:01:43;8.20;68.10
12901;DHT22;6518;50.930;5.344;2023-04-06T08:04:10;8.30;68.10
12901;DHT22;6518;50.930;5.344;2023-04-06T08:06:37;8.30;68.20
12901;DHT22;6518;50.930;5.344;2023-04-06T08:09:04;8.30;68.20
12901;DHT22;6518;50.930;5.344;2023-04-06T08:11:31;8.30;68.10
12901;DHT22;6518;50.930;5.344;2023-04-06T08:13:58;8.40;68.30
12901;DHT22;6518;50.930;5.344;2023-04-06T08:16:26;8.40;68.40
12901;DHT22;6518;50.930;5.344;2023-04-06T08:18:53;8.40;68.40
12901;DHT22;6518;50.930;5.344;2023-04-06T08:21:20;8.50;68.50
12901;DHT22;6518;50.930;5.344;2023-04-06T08:23:47;8.50;68.50
12901;DHT22;6518;50.930;5.344;2023-04-06T08:26:13;8.50;68.40
12901;DHT22;6518;50.930;5.344;2023-04-06T08:28:40;8.60;68.50
12901;DHT22;6518;50.930;5.344;2023-04-06T08:31:07;8.60;68.40
12901;DHT22;6518;50.930;5.344;2023-04-06T08:33:36;8.70;68.40
12901;DHT22;6518;50.930;5.344;2023-04-06T08:36:09;8.80;68.40
12901;DHT22;6518;50.930;5.344;2023-04-06T08:38:36;8.90;68.30
12901;DHT22;6518;50.930;5.344;2023-04-06T08:41:07;9.00;68.20
12901;DHT22;6518;50.930;5.344;2023-04-06T08:43:38;9.10;68.20
12901;DHT22;6518;50.930;5.344;2023-04-06T08:46:08;9.10;68.00
12901;DHT22;6518;50.930;5.344;2023-04-06T08:48:37;9.20;68.00
12901;DHT22;6518;50.930;5.344;2023-04-06T08:51:05;9.20;67.90
12901;DHT22;6518;50.930;5.344;2023-04-06T08:53:32;9.30;67.80
12901;DHT22;6518;50.930;5.344;2023-04-06T08:55:59;9.40;67.80
12901;DHT22;6518;50.930;5.344;2023-04-06T08:58:31;9.40;67.60
12901;DHT22;6518;50.930;5.344;2023-04-06T09:00:59;9.50;67.60
12901;DHT22;6518;50.930;5.344;2023-04-06T09:03:28;9.50;67.50
12901;DHT22;6518;50.930;5.344;2023-04-06T09:05:58;9.60;67.40
12901;DHT22;6518;50.930;5.344;2023-04-06T09:08:25;9.60;67.30
12901;DHT22;6518;50.930;5.344;2023-04-06T09:10:53;9.70;67.20
12901;DHT22;6518;50.930;5.344;2023-04-06T09:13:20;9.70;67.10
12901;DHT22;6518;50.930;5.344;2023-04-06T09:15:46;9.70;67.10
12901;DHT22;6518;50.930;5.344;2023-04-06T09:18:28;9.70;67.20
12901;DHT22;6518;50.930;5.344;2023-04-06T09:21:04;9.70;67.10
12901;DHT22;6518;50.930;5.344;2023-04-06T09:23:32;9.70;67.20
12901;DHT22;6518;50.930;5.344;2023-04-06T09:26:06;9.70;67.10
12901;DHT22;6518;50.930;5.344;2023-04-06T09:28:44;9.70;67.20
12901;DHT22;6518;50.930;5.344;2023-04-06T09:31:12;9.80;67.30
12901;DHT22;6518;50.930;5.344;2023-04-06T09:33:41;9.80;67.30
12901;DHT22;6518;50.930;5.344;2023-04-06T09:36:10;9.90;67.50
12901;DHT22;6518;50.930;5.344;2023-04-06T09:38:38;10.00;67.60
12901;DHT22;6518;50.930;5.344;2023-04-06T09:41:05;10.00;68.30
12901;DHT22;6518;50.930;5.344;2023-04-06T09:43:32;10.10;68.30
12901;DHT22;6518;50.930;5.344;2023-04-06T09:46:01;10.10;69.10
12901;DHT22;6518;50.930;5.344;2023-04-06T09:48:31;10.10;69.80
12901;DHT22;6518;50.930;5.344;2023-04-06T09:51:03;10.10;70.30
12901;DHT22;6518;50.930;5.344;2023-04-06T09:53:35;10.00;71.40
12901;DHT22;6518;50.930;5.344;2023-04-06T09:56:06;10.00;71.50
12901;DHT22;6518;50.930;5.344;2023-04-06T09:58:37;9.90;71.90
12901;DHT22;6518;50.930;5.344;2023-04-06T10:01:10;9.90;71.80
12901;DHT22;6518;50.930;5.344;2023-04-06T10:03:45;9.80;73.00
12901;DHT22;6518;50.930;5.344;2023-04-06T10:06:17;9.90;73.70
12901;DHT22;6518;50.930;5.344;2023-04-06T10:08:50;9.80;73.60
12901;DHT22;6518;50.930;5.344;2023-04-06T10:11:20;9.80;74.00
12901;DHT22;6518;50.930;5.344;2023-04-06T10:13:48;9.90;74.10
12901;DHT22;6518;50.930;5.344;2023-04-06T10:16:15;9.90;73.90
12901;DHT22;6518;50.930;5.344;2023-04-06T10:18:46;9.80;74.10
12901;DHT22;6518;50.930;5.344;2023-04-06T10:21:17;9.90;74.70
12901;DHT22;6518;50.930;5.344;2023-04-06T10:23:51;9.90;74.80
12901;DHT22;6518;50.930;5.344;2023-04-06T10:26:24;9.90;75.20
12901;DHT22;6518;50.930;5.344;2023-04-06T10:28:52;9.90;74.60
12901;DHT22;6518;50.930;5.344;2023-04-06T10:31:28;9.90;75.20
12901;DHT22;6518;50.930;5.344;2023-04-06T10:33:56;9.90;75.40
12901;DHT22;6518;50.930;5.344;2023-04-06T10:36:25;9.90;75.50
12901;DHT22;6518;50.930;5.344;2023-04-06T10:38:58;9.90;76.00
12901;DHT22;6518;50.930;5.344;2023-04-06T10:41:33;10.50;76.50
12901;DHT22;6518;50.930;5.344;2023-04-06T10:44:00;10.00;76.50
12901;DHT22;6518;50.930;5.344;2023-04-06T10:46:30;9.90;77.70
12901;DHT22;6518;50.930;5.344;2023-04-06T10:48:58;10.00;77.10
12901;DHT22;6518;50.930;5.344;2023-04-06T10:51:27;10.00;77.10
12901;DHT22;6518;50.930;5.344;2023-04-06T10:53:56;9.90;77.30
12901;DHT22;6518;50.930;5.344;2023-04-06T10:56:24;9.90;77.50
12901;DHT22;6518;50.930;5.344;2023-04-06T10:58:54;9.90;77.50
12901;DHT22;6518;50.930;5.344;2023-04-06T11:01:23;9.90;77.80
12901;DHT22;6518;50.930;5.344;2023-04-06T11:03:52;9.90;77.90
12901;DHT22;6518;50.930;5.344;2023-04-06T11:06:20;9.90;78.30
12901;DHT22;6518;50.930;5.344;2023-04-06T11:08:47;9.90;78.90
12901;DHT22;6518;50.930;5.344;2023-04-06T11:11:17;9.90;78.70
12901;DHT22;6518;50.930;5.344;2023-04-06T11:13:48;9.90;78.30
12901;DHT22;6518;50.930;5.344;2023-04-06T11:16:16;9.90;78.90
12901;DHT22;6518;50.930;5.344;2023-04-06T11:18:51;9.90;78.80
12901;DHT22;6518;50.930;5.344;2023-04-06T11:21:18;9.90;78.90
12901;DHT22;6518;50.930;5.344;2023-04-06T11:23:46;9.90;79.10
12901;DHT22;6518;50.930;5.344;2023-04-06T11:26:15;9.90;79.40
12901;DHT22;6518;50.930;5.344;2023-04-06T11:28:42;10.00;80.30
12901;DHT22;6518;50.930;5.344;2023-04-06T11:31:10;9.90;80.90
12901;DHT22;6518;50.930;5.344;2023-04-06T11:33:37;9.90;80.70
12901;DHT22;6518;50.930;5.344;2023-04-06T11:36:06;10.00;81.40
12901;DHT22;6518;50.930;5.344;2023-04-06T11:38:33;10.00;80.60
12901;DHT22;6518;50.930;5.344;2023-04-06T11:41:01;10.10;81.00
12901;DHT22;6518;50.930;5.344;2023-04-06T11:43:30;10.20;81.10
12901;DHT22;6518;50.930;5.344;2023-04-06T11:46:00;10.30;81.00
12901;DHT22;6518;50.930;5.344;2023-04-06T11:48:28;10.40;81.20
12901;DHT22;6518;50.930;5.344;2023-04-06T11:50:56;10.40;81.10
12901;DHT22;6518;50.930;5.344;2023-04-06T11:53:23;10.50;81.50
12901;DHT22;6518;50.930;5.344;2023-04-06T11:55:51;10.50;81.90
12901;DHT22;6518;50.930;5.344;2023-04-06T11:58:18;10.50;81.90
12901;DHT22;6518;50.930;5.344;2023-04-06T12:00:46;10.50;81.90
12901;DHT22;6518;50.930;5.344;2023-04-06T12:03:13;10.50;82.20
12901;DHT22;6518;50.930;5.344;2023-04-06T12:05:40;10.50;82.20
12901;DHT22;6518;50.930;5.344;2023-04-06T12:08:07;10.50;82.20
12901;DHT22;6518;50.930;5.344;2023-04-06T12:10:34;10.50;82.70
12901;DHT22;6518;50.930;5.344;2023-04-06T12:13:01;10.60;82.70
12901;DHT22;6518;50.930;5.344;2023-04-06T12:15:28;10.60;82.60
12901;DHT22;6518;50.930;5.344;2023-04-06T12:17:56;10.60;82.60
12901;DHT22;6518;50.930;5.344;2023-04-06T12:20:23;10.60;82.70
12901;DHT22;6518;50.930;5.344;2023-04-06T12:22:51;10.60;82.60
12901;DHT22;6518;50.930;5.344;2023-04-06T12:25:18;10.70;83.30
12901;DHT22;6518;50.930;5.344;2023-04-06T12:27:45;10.70;83.30
12901;DHT22;6518;50.930;5.344;2023-04-06T12:30:13;10.70;83.10
12901;DHT22;6518;50.930;5.344;2023-04-06T12:32:40;10.60;83.20
12901;DHT22;6518;50.930;5.344;2023-04-06T12:35:08;10.60;83.80
12901;DHT22;6518;50.930;5.344;2023-04-06T12:37:37;10.60;83.80
12901;DHT22;6518;50.930;5.344;2023-04-06T12:40:05;10.60;84.00
12901;DHT22;6518;50.930;5.344;2023-04-06T12:42:32;10.60;84.20
12901;DHT22;6518;50.930;5.344;2023-04-06T12:44:59;10.50;84.20
12901;DHT22;6518;50.930;5.344;2023-04-06T12:47:26;10.50;84.40
12901;DHT22;6518;50.930;5.344;2023-04-06T12:49:53;10.50;85.00
12901;DHT22;6518;50.930;5.344;2023-04-06T12:52:22;10.40;85.30
12901;DHT22;6518;50.930;5.344;2023-04-06T12:54:49;10.40;86.20
12901;DHT22;6518;50.930;5.344;2023-04-06T12:57:17;10.40;86.70
12901;DHT22;6518;50.930;5.344;2023-04-06T12:59:44;10.30;87.20
12901;DHT22;6518;50.930;5.344;2023-04-06T13:02:11;10.30;87.50
12901;DHT22;6518;50.930;5.344;2023-04-06T13:04:38;10.30;88.70
12901;DHT22;6518;50.930;5.344;2023-04-06T13:07:05;10.30;89.10
12901;DHT22;6518;50.930;5.344;2023-04-06T13:09:34;10.20;90.40
12901;DHT22;6518;50.930;5.344;2023-04-06T13:12:01;10.20;91.20
12901;DHT22;6518;50.930;5.344;2023-04-06T13:14:27;10.10;91.40
12901;DHT22;6518;50.930;5.344;2023-04-06T13:16:55;10.20;91.40
12901;DHT22;6518;50.930;5.344;2023-04-06T13:19:23;10.20;92.00
12901;DHT22;6518;50.930;5.344;2023-04-06T13:21:50;10.20;92.50
12901;DHT22;6518;50.930;5.344;2023-04-06T13:24:17;10.20;92.80
12901;DHT22;6518;50.930;5.344;2023-04-06T13:26:46;10.20;92.80
12901;DHT22;6518;50.930;5.344;2023-04-06T13:29:13;10.20;93.10
12901;DHT22;6518;50.930;5.344;2023-04-06T13:31:40;10.30;93.30
12901;DHT22;6518;50.930;5.344;2023-04-06T13:34:07;10.30;93.80
12901;DHT22;6518;50.930;5.344;2023-04-06T13:36:34;10.40;95.00
12901;DHT22;6518;50.930;5.344;2023-04-06T13:39:01;10.40;94.80
12901;DHT22;6518;50.930;5.344;2023-04-06T13:41:28;10.40;94.50
12901;DHT22;6518;50.930;5.344;2023-04-06T13:43:57;10.50;94.30
12901;DHT22;6518;50.930;5.344;2023-04-06T13:46:24;10.50;94.60
12901;DHT22;6518;50.930;5.344;2023-04-06T13:48:51;10.60;94.90
12901;DHT22;6518;50.930;5.344;2023-04-06T13:51:18;10.50;95.20
12901;DHT22;6518;50.930;5.344;2023-04-06T13:53:44;10.50;95.10
12901;DHT22;6518;50.930;5.344;2023-04-06T13:56:11;10.60;95.40
12901;DHT22;6518;50.930;5.344;2023-04-06T13:58:38;10.50;95.30
12901;DHT22;6518;50.930;5.344;2023-04-06T14:01:07;10.50;95.20
12901;DHT22;6518;50.930;5.344;2023-04-06T14:03:35;10.50;95.60
12901;DHT22;6518;50.930;5.344;2023-04-06T14:06:10;10.50;95.30
12901;DHT22;6518;50.930;5.344;2023-04-06T14:08:37;10.50;96.10
12901;DHT22;6518;50.930;5.344;2023-04-06T14:11:04;10.40;96.90
12901;DHT22;6518;50.930;5.344;2023-04-06T14:13:33;10.30;97.30
12901;DHT22;6518;50.930;5.344;2023-04-06T14:16:00;10.30;97.60
12901;DHT22;6518;50.930;5.344;2023-04-06T14:18:29;10.30;97.60
12901;DHT22;6518;50.930;5.344;2023-04-06T14:20:57;10.30;98.80
12901;DHT22;6518;50.930;5.344;2023-04-06T14:23:24;10.30;99.00
12901;DHT22;6518;50.930;5.344;2023-04-06T14:25:52;10.40;99.90
12901;DHT22;6518;50.930;5.344;2023-04-06T14:28:26;10.40;99.80
12901;DHT22;6518;50.930;5.344;2023-04-06T14:30:53;10.50;99.90
12901;DHT22;6518;50.930;5.344;2023-04-06T14:33:20;10.50;99.90
12901;DHT22;6518;50.930;5.344;2023-04-06T14:35:48;10.50;99.90
12901;DHT22;6518;50.930;5.344;2023-04-06T14:38:15;10.50;99.90
12901;DHT22;6518;50.930;5.344;2023-04-06T14:40:42;10.50;99.90
12901;DHT22;6518;50.930;5.344;2023-04-06T14:43:08;10.50;99.90
12901;DHT22;6518;50.930;5.344;2023-04-06T14:45:35;10.40;99.90
12901;DHT22;6518;50.930;5.344;2023-04-06T14:48:05;10.40;99.90
12901;DHT22;6518;50.930;5.344;2023-04-06T14:50:32;10.40;99.90
12901;DHT22;6518;50.930;5.344;2023-04-06T14:53:01;10.40;99.90
12901;DHT22;6518;50.930;5.344;2023-04-06T14:55:28;10.40;99.90
12901;DHT22;6518;50.930;5.344;2023-04-06T14:57:54;10.40;99.90
12901;DHT22;6518;50.930;5.344;2023-04-06T15:00:21;10.30;99.90
12901;DHT22;6518;50.930;5.344;2023-04-06T15:02:48;10.30;99.90
12901;DHT22;6518;50.930;5.344;2023-04-06T15:05:15;10.30;99.90
12901;DHT22;6518;50.930;5.344;2023-04-06T15:07:42;10.30;99.90
12901;DHT22;6518;50.930;5.344;2023-04-06T15:10:10;10.20;99.90
12901;DHT22;6518;50.930;5.344;2023-04-06T15:12:38;10.30;99.90
12901;DHT22;6518;50.930;5.344;2023-04-06T15:15:05;10.20;99.90
12901;DHT22;6518;50.930;5.344;2023-04-06T15:17:32;10.20;99.90
12901;DHT22;6518;50.930;5.344;2023-04-06T15:19:59;10.10;99.90
12901;DHT22;6518;50.930;5.344;2023-04-06T15:22:26;10.10;99.90
12901;DHT22;6518;50.930;5.344;2023-04-06T15:24:53;10.20;99.90
12901;DHT22;6518;50.930;5.344;2023-04-06T15:27:21;10.10;99.90
12901;DHT22;6518;50.930;5.344;2023-04-06T15:29:48;10.20;99.90
12901;DHT22;6518;50.930;5.344;2023-04-06T15:32:14;10.10;99.90
12901;DHT22;6518;50.930;5.344;2023-04-06T15:34:41;10.10;99.90
12901;DHT22;6518;50.930;5.344;2023-04-06T15:37:08;10.10;99.90
12901;DHT22;6518;50.930;5.344;2023-04-06T15:39:35;10.10;99.90
12901;DHT22;6518;50.930;5.344;2023-04-06T15:42:02;10.00;99.90
12901;DHT22;6518;50.930;5.344;2023-04-06T15:44:31;10.00;99.90
12901;DHT22;6518;50.930;5.344;2023-04-06T15:46:57;10.00;99.90
12901;DHT22;6518;50.930;5.344;2023-04-06T15:49:24;9.90;99.90
12901;DHT22;6518;50.930;5.344;2023-04-06T15:51:51;9.90;99.90
12901;DHT22;6518;50.930;5.344;2023-04-06T15:54:18;9.90;99.90
12901;DHT22;6518;50.930;5.344;2023-04-06T15:56:46;9.80;99.90
12901;DHT22;6518;50.930;5.344;2023-04-06T15:59:12;9.80;99.90